Aurora State Airport
KUAO : now visible

Airfield :











YOU CAN JOIN US ON...

 
LOGIN :

Register | Disclaimer

   EN    FR    IT 

 









Legend :    VFR   Marginal VFR   IFR   Intensive IFR   Very Intensive IFR
Visi :
Ceiling :
>= 8 km
>= 3000ft
5 to 8 km
1000 to 3000 ft
1500m to 5 km
500 to 1000 ft
800 to 1500m
200 to 500 ft
< 800m
< 200 ft
Symbols :   Thunderstorms  Fog  Heavy snow  Heavy precipitations  Wind > 20 kt






- Airport Elevation : 200 ft


KUAO - Aurora State

CURRENT METAR :
  • 261153Z AUTO 19005KT 10SM OVC022 14/11 A2995 RMK AO2 SLP141 T01390106 10156 20128 51009

EXPIRED METARs :
  • 261053Z AUTO 19007KT 10SM OVC020 13/11 A2995 RMK AO2 SLP141 T01330106
  • 260953Z AUTO 19009KT 10SM OVC018 14/11 A2994 RMK AO2 SLP136 T01390106
  • 260941Z AUTO 19006KT 10SM BKN018 14/11 A2994 RMK AO2 T01390106

TAF KUAO
Valid from the 26 at 12:00 until the 27 at 12:00 UTC


261135Z 2612/2712 21005KT P6SM OVC020
FM261500 20006KT P6SM OVC018
FM261700 20006KT P6SM OVC120
FM261800 20010G18KT P6SM -RA BKN060
FM270100 20010G19KT P6SM -RA BKN050
FM270300 19009KT P6SM -RA OVC030
KZSE FIR / North America



MET'MAP, your aeronautical weather chart ! - Copyright ORBIFLY December 2007 - Disclaimer

ORBIFLY MET'MAP TEAM :

Programming & Development : Alexandra Zaïnal
Concept & original design : Baudouin d'Aumeries
Assistance for programming : Marc-Olivier Méhu
Technical & hardware support : Manuel Goepfert

Contact : metmap@orbifly.com




SOURCES & CREDITS :

   NOAA       Earth
Advisory